Bluffton, Iowa
Current Conditions -  °F | °C
As of 8:55 AM on Monday 22 Dec 2014 (Local Time) from KDEH Reporting Station
Haze Haze  
Wind Chill: 25°   Ceiling: 2200
Heat Index: 34°   Visibility: 3mi
Dew Point: 34°   Wind: 12mph
Humidity: 100%   Direction: 140°SE
Pressure: 29.71"   Gusts: 21mph
Location:  43.3626°N, 91.8164°W
Report Text: KDEH 221455Z AUTO 14010G18KT 3SM BR FEW008 OVC022 01/01 A2971 RMK AO2
Loading
Personal Weather Stations






























Interactive Weather Map New forecast layout! Learn more

10-Day Weather Forecast

Advertisements
Track Severe Weather on mobile